sensor_id;sensor_type;location;lat;lon;timestamp;pressure;altitude;pressure_sealevel;temperature;humidity
61394;BME280;48555;50.952;-0.120;2023-03-18T00:00:40;100060.53;;;12.68;89.87
61394;BME280;48555;50.952;-0.120;2023-03-18T00:03:07;100060.81;;;12.65;89.94
61394;BME280;48555;50.952;-0.120;2023-03-18T00:05:33;100063.84;;;12.61;90.28
61394;BME280;48555;50.952;-0.120;2023-03-18T00:08:02;100060.53;;;12.59;90.63
61394;BME280;48555;50.952;-0.120;2023-03-18T00:10:29;100060.41;;;12.50;91.05
61394;BME280;48555;50.952;-0.120;2023-03-18T00:12:54;100059.69;;;12.58;91.10
61394;BME280;48555;50.952;-0.120;2023-03-18T00:15:20;100057.09;;;12.58;91.06
61394;BME280;48555;50.952;-0.120;2023-03-18T00:17:46;100060.28;;;12.62;91.20
61394;BME280;48555;50.952;-0.120;2023-03-18T00:20:13;100050.59;;;12.62;90.95
61394;BME280;48555;50.952;-0.120;2023-03-18T00:22:41;100039.28;;;12.62;91.10
61394;BME280;48555;50.952;-0.120;2023-03-18T00:25:09;100039.84;;;12.65;91.32
61394;BME280;48555;50.952;-0.120;2023-03-18T00:27:35;100046.44;;;12.69;91.06
61394;BME280;48555;50.952;-0.120;2023-03-18T00:30:03;100044.22;;;12.75;91.05
61394;BME280;48555;50.952;-0.120;2023-03-18T00:32:29;100054.28;;;12.79;91.01
61394;BME280;48555;50.952;-0.120;2023-03-18T00:34:55;100049.19;;;12.78;90.96
61394;BME280;48555;50.952;-0.120;2023-03-18T00:37:21;100060.09;;;12.83;90.96
61394;BME280;48555;50.952;-0.120;2023-03-18T00:39:59;100056.63;;;12.82;91.02
61394;BME280;48555;50.952;-0.120;2023-03-18T00:42:30;100058.44;;;12.82;91.17
61394;BME280;48555;50.952;-0.120;2023-03-18T00:45:05;100056.63;;;12.82;91.39
61394;BME280;48555;50.952;-0.120;2023-03-18T00:47:31;100055.81;;;12.82;91.28
61394;BME280;48555;50.952;-0.120;2023-03-18T00:49:57;100062.72;;;12.83;91.45
61394;BME280;48555;50.952;-0.120;2023-03-18T00:52:22;100056.50;;;12.84;91.55
61394;BME280;48555;50.952;-0.120;2023-03-18T00:54:48;100057.31;;;12.84;91.66
61394;BME280;48555;50.952;-0.120;2023-03-18T00:57:14;100049.44;;;12.84;91.82
61394;BME280;48555;50.952;-0.120;2023-03-18T00:59:39;100052.91;;;12.85;91.79
61394;BME280;48555;50.952;-0.120;2023-03-18T01:02:05;100056.38;;;12.85;91.88
61394;BME280;48555;50.952;-0.120;2023-03-18T01:04:31;100054.56;;;12.86;91.98
61394;BME280;48555;50.952;-0.120;2023-03-18T01:06:56;100049.16;;;12.87;91.78
61394;BME280;48555;50.952;-0.120;2023-03-18T01:09:22;100042.28;;;12.86;91.54
61394;BME280;48555;50.952;-0.120;2023-03-18T01:11:48;100052.22;;;12.83;91.42
61394;BME280;48555;50.952;-0.120;2023-03-18T01:14:13;100061.22;;;12.80;91.65
61394;BME280;48555;50.952;-0.120;2023-03-18T01:16:38;100061.34;;;12.79;91.41
61394;BME280;48555;50.952;-0.120;2023-03-18T01:19:04;100054.56;;;12.76;91.50
61394;BME280;48555;50.952;-0.120;2023-03-18T01:21:30;100040.91;;;12.72;91.57
61394;BME280;48555;50.952;-0.120;2023-03-18T01:23:56;100045.22;;;12.73;91.82
61394;BME280;48555;50.952;-0.120;2023-03-18T01:26:21;100029.59;;;12.72;91.80
61394;BME280;48555;50.952;-0.120;2023-03-18T01:28:47;100036.66;;;12.71;91.78
61394;BME280;48555;50.952;-0.120;2023-03-18T01:31:13;100042.47;;;12.65;92.11
61394;BME280;48555;50.952;-0.120;2023-03-18T01:33:39;100038.44;;;12.61;92.21
61394;BME280;48555;50.952;-0.120;2023-03-18T01:36:05;100040.13;;;12.62;92.26
61394;BME280;48555;50.952;-0.120;2023-03-18T01:38:32;100037.50;;;12.62;92.27
61394;BME280;48555;50.952;-0.120;2023-03-18T01:40:59;100032.53;;;12.59;92.45
61394;BME280;48555;50.952;-0.120;2023-03-18T01:43:31;100035.72;;;12.53;92.80
61394;BME280;48555;50.952;-0.120;2023-03-18T01:45:59;100035.28;;;12.58;92.93
61394;BME280;48555;50.952;-0.120;2023-03-18T01:48:28;100030.19;;;12.56;92.85
61394;BME280;48555;50.952;-0.120;2023-03-18T01:50:57;100023.53;;;12.52;93.10
61394;BME280;48555;50.952;-0.120;2023-03-18T01:53:27;100023.81;;;12.49;93.21
61394;BME280;48555;50.952;-0.120;2023-03-18T01:55:54;100028.38;;;12.47;93.17
61394;BME280;48555;50.952;-0.120;2023-03-18T01:58:47;100024.81;;;12.48;93.02
61394;BME280;48555;50.952;-0.120;2023-03-18T02:01:31;100036.25;;;12.47;93.24
61394;BME280;48555;50.952;-0.120;2023-03-18T02:03:58;100024.53;;;12.41;93.19
61394;BME280;48555;50.952;-0.120;2023-03-18T02:06:25;100029.22;;;12.38;93.18
61394;BME280;48555;50.952;-0.120;2023-03-18T02:08:51;100019.44;;;12.40;93.23
61394;BME280;48555;50.952;-0.120;2023-03-18T02:11:17;100020.50;;;12.47;93.07
61394;BME280;48555;50.952;-0.120;2023-03-18T02:13:44;100014.59;;;12.45;92.74
61394;BME280;48555;50.952;-0.120;2023-03-18T02:16:18;100007.56;;;12.36;93.04
61394;BME280;48555;50.952;-0.120;2023-03-18T02:18:57;100008.53;;;12.35;92.92
61394;BME280;48555;50.952;-0.120;2023-03-18T02:21:36;100014.59;;;12.35;92.77
61394;BME280;48555;50.952;-0.120;2023-03-18T02:27:16;100002.88;;;12.30;92.44
61394;BME280;48555;50.952;-0.120;2023-03-18T02:29:42;100015.03;;;12.31;92.31
61394;BME280;48555;50.952;-0.120;2023-03-18T02:32:08;100012.41;;;12.31;92.35
61394;BME280;48555;50.952;-0.120;2023-03-18T02:34:36;100015.44;;;12.36;92.41
61394;BME280;48555;50.952;-0.120;2023-03-18T02:37:02;100012.66;;;12.37;92.40
61394;BME280;48555;50.952;-0.120;2023-03-18T02:39:28;100018.72;;;12.38;92.12
61394;BME280;48555;50.952;-0.120;2023-03-18T02:41:56;100017.09;;;12.37;92.38
61394;BME280;48555;50.952;-0.120;2023-03-18T02:44:21;100015.03;;;12.31;92.84
61394;BME280;48555;50.952;-0.120;2023-03-18T02:47:00;100015.84;;;12.31;93.12
61394;BME280;48555;50.952;-0.120;2023-03-18T02:49:27;100011.69;;;12.28;93.43
61394;BME280;48555;50.952;-0.120;2023-03-18T02:51:53;100012.13;;;12.34;93.19
61394;BME280;48555;50.952;-0.120;2023-03-18T02:54:23;100009.50;;;12.34;93.45
61394;BME280;48555;50.952;-0.120;2023-03-18T02:56:50;100009.22;;;12.37;93.49
61394;BME280;48555;50.952;-0.120;2023-03-18T02:59:16;100015.16;;;12.39;93.93
61394;BME280;48555;50.952;-0.120;2023-03-18T03:01:43;100021.66;;;12.44;93.78
61394;BME280;48555;50.952;-0.120;2023-03-18T03:04:09;100013.91;;;12.43;93.99
61394;BME280;48555;50.952;-0.120;2023-03-18T03:06:35;100011.69;;;12.48;93.72
61394;BME280;48555;50.952;-0.120;2023-03-18T03:09:04;100014.16;;;12.49;93.71
61394;BME280;48555;50.952;-0.120;2023-03-18T03:11:31;100007.97;;;12.50;93.54
61394;BME280;48555;50.952;-0.120;2023-03-18T03:13:57;100003.94;;;12.46;93.56
61394;BME280;48555;50.952;-0.120;2023-03-18T03:16:22;100010.72;;;12.49;93.52
61394;BME280;48555;50.952;-0.120;2023-03-18T03:18:48;100013.63;;;12.46;93.50
61394;BME280;48555;50.952;-0.120;2023-03-18T03:21:14;100016.41;;;12.44;93.54
61394;BME280;48555;50.952;-0.120;2023-03-18T03:23:40;100016.13;;;12.47;93.27
61394;BME280;48555;50.952;-0.120;2023-03-18T03:26:06;100021.09;;;12.50;93.11
61394;BME280;48555;50.952;-0.120;2023-03-18T03:28:32;100019.69;;;12.46;93.40
61394;BME280;48555;50.952;-0.120;2023-03-18T03:30:58;100021.50;;;12.46;93.12
61394;BME280;48555;50.952;-0.120;2023-03-18T03:33:24;100018.88;;;12.46;93.21
61394;BME280;48555;50.952;-0.120;2023-03-18T03:35:50;100015.00;;;12.40;93.29
61394;BME280;48555;50.952;-0.120;2023-03-18T03:38:16;100019.84;;;12.45;93.21
61394;BME280;48555;50.952;-0.120;2023-03-18T03:40:42;100014.44;;;12.46;93.04
61394;BME280;48555;50.952;-0.120;2023-03-18T03:43:10;99990.19;;;12.25;93.20
61394;BME280;48555;50.952;-0.120;2023-03-18T03:45:36;100013.91;;;12.43;93.24
61394;BME280;48555;50.952;-0.120;2023-03-18T03:48:02;100010.59;;;12.41;93.29
61394;BME280;48555;50.952;-0.120;2023-03-18T03:50:28;100008.66;;;12.43;93.12
61394;BME280;48555;50.952;-0.120;2023-03-18T03:52:53;100008.66;;;12.43;93.06
61394;BME280;48555;50.952;-0.120;2023-03-18T03:55:20;100006.28;;;12.49;92.77
61394;BME280;48555;50.952;-0.120;2023-03-18T03:57:47;100016.78;;;12.49;92.71
61394;BME280;48555;50.952;-0.120;2023-03-18T04:00:15;100015.41;;;12.45;92.99
61394;BME280;48555;50.952;-0.120;2023-03-18T04:02:43;100018.03;;;12.45;92.98
61394;BME280;48555;50.952;-0.120;2023-03-18T04:05:10;100018.88;;;12.46;92.78
61394;BME280;48555;50.952;-0.120;2023-03-18T04:07:37;100008.66;;;12.43;92.87
61394;BME280;48555;50.952;-0.120;2023-03-18T04:10:04;100015.41;;;12.45;92.64
61394;BME280;48555;50.952;-0.120;2023-03-18T04:12:29;100015.81;;;12.41;92.81
61394;BME280;48555;50.952;-0.120;2023-03-18T04:14:55;100013.63;;;12.36;92.64
61394;BME280;48555;50.952;-0.120;2023-03-18T04:17:20;100012.94;;;12.34;92.87
61394;BME280;48555;50.952;-0.120;2023-03-18T04:19:46;100028.41;;;12.37;92.79
61394;BME280;48555;50.952;-0.120;2023-03-18T04:22:11;100025.38;;;12.42;92.69
61394;BME280;48555;50.952;-0.120;2023-03-18T04:24:37;100019.84;;;12.45;92.63
61394;BME280;48555;50.952;-0.120;2023-03-18T04:27:02;100021.22;;;12.49;92.22
61394;BME280;48555;50.952;-0.120;2023-03-18T04:29:28;100017.34;;;12.53;92.13
61394;BME280;48555;50.952;-0.120;2023-03-18T04:31:53;100009.63;;;12.52;92.23
61394;BME280;48555;50.952;-0.120;2023-03-18T04:34:19;100013.06;;;12.52;91.66
61394;BME280;48555;50.952;-0.120;2023-03-18T04:36:44;100014.31;;;12.48;91.62
61394;BME280;48555;50.952;-0.120;2023-03-18T04:39:10;100014.31;;;12.48;91.57
61394;BME280;48555;50.952;-0.120;2023-03-18T04:41:35;100002.59;;;12.42;91.52
61394;BME280;48555;50.952;-0.120;2023-03-18T04:44:04;99997.88;;;12.46;91.28
61394;BME280;48555;50.952;-0.120;2023-03-18T04:46:30;100008.09;;;12.49;91.12
61394;BME280;48555;50.952;-0.120;2023-03-18T04:48:57;99997.31;;;12.52;91.05
61394;BME280;48555;50.952;-0.120;2023-03-18T04:51:23;100009.78;;;12.50;91.00
61394;BME280;48555;50.952;-0.120;2023-03-18T04:53:49;100003.66;;;12.49;90.91
61394;BME280;48555;50.952;-0.120;2023-03-18T04:56:15;100004.66;;;12.48;90.77
61394;BME280;48555;50.952;-0.120;2023-03-18T04:58:41;100012.13;;;12.53;90.90
61394;BME280;48555;50.952;-0.120;2023-03-18T05:01:07;100015.13;;;12.58;90.61
61394;BME280;48555;50.952;-0.120;2023-03-18T05:03:32;100015.81;;;12.60;90.70
61394;BME280;48555;50.952;-0.120;2023-03-18T05:05:57;100010.28;;;12.63;90.49
61394;BME280;48555;50.952;-0.120;2023-03-18T05:08:23;100014.56;;;12.64;90.37
61394;BME280;48555;50.952;-0.120;2023-03-18T05:10:49;100009.47;;;12.63;90.34
61394;BME280;48555;50.952;-0.120;2023-03-18T05:13:15;100003.81;;;12.58;90.14
61394;BME280;48555;50.952;-0.120;2023-03-18T05:15:41;100011.53;;;12.59;90.39
61394;BME280;48555;50.952;-0.120;2023-03-18T05:18:07;100007.81;;;12.62;90.06
61394;BME280;48555;50.952;-0.120;2023-03-18T05:20:32;100006.41;;;12.67;89.87
61394;BME280;48555;50.952;-0.120;2023-03-18T05:22:58;100007.25;;;12.68;89.74
61394;BME280;48555;50.952;-0.120;2023-03-18T05:25:24;99999.38;;;12.68;89.78
61394;BME280;48555;50.952;-0.120;2023-03-18T05:27:50;99993.56;;;12.64;89.75
61394;BME280;48555;50.952;-0.120;2023-03-18T05:30:15;100004.06;;;12.64;89.67
61394;BME280;48555;50.952;-0.120;2023-03-18T05:32:41;100002.13;;;12.66;89.84
61394;BME280;48555;50.952;-0.120;2023-03-18T05:35:08;99996.19;;;12.64;89.49
61394;BME280;48555;50.952;-0.120;2023-03-18T05:37:34;99999.25;;;12.60;89.39
61394;BME280;48555;50.952;-0.120;2023-03-18T05:40:00;99990.97;;;12.55;89.61
61394;BME280;48555;50.952;-0.120;2023-03-18T05:42:25;99990.69;;;12.58;89.61
61394;BME280;48555;50.952;-0.120;2023-03-18T05:44:51;100001.47;;;12.55;89.48
61394;BME280;48555;50.952;-0.120;2023-03-18T05:47:16;100004.25;;;12.53;89.55
61394;BME280;48555;50.952;-0.120;2023-03-18T05:49:42;99998.44;;;12.49;89.60
61394;BME280;48555;50.952;-0.120;2023-03-18T05:52:07;100000.38;;;12.47;89.69
61394;BME280;48555;50.952;-0.120;2023-03-18T05:54:34;99990.19;;;12.44;89.42
61394;BME280;48555;50.952;-0.120;2023-03-18T05:56:59;99990.31;;;12.43;89.70
61394;BME280;48555;50.952;-0.120;2023-03-18T05:59:25;99997.06;;;12.45;89.49
61394;BME280;48555;50.952;-0.120;2023-03-18T06:01:50;99997.34;;;12.42;89.69
61394;BME280;48555;50.952;-0.120;2023-03-18T06:04:18;99995.56;;;12.33;89.89
61394;BME280;48555;50.952;-0.120;2023-03-18T06:06:45;99993.22;;;12.30;90.03
61394;BME280;48555;50.952;-0.120;2023-03-18T06:09:11;99990.59;;;12.20;90.26
61394;BME280;48555;50.952;-0.120;2023-03-18T06:11:38;100010.34;;;12.24;90.20
61394;BME280;48555;50.952;-0.120;2023-03-18T06:14:05;99998.34;;;12.22;90.39
61394;BME280;48555;50.952;-0.120;2023-03-18T06:16:31;100009.78;;;12.21;90.69
61394;BME280;48555;50.952;-0.120;2023-03-18T06:18:56;100001.50;;;12.16;90.91
61394;BME280;48555;50.952;-0.120;2023-03-18T06:21:22;100003.69;;;12.20;90.77
61394;BME280;48555;50.952;-0.120;2023-03-18T06:23:48;99996.25;;;12.16;91.02
61394;BME280;48555;50.952;-0.120;2023-03-18T06:26:14;100001.50;;;12.16;91.45
61394;BME280;48555;50.952;-0.120;2023-03-18T06:28:39;100004.41;;;12.03;92.03
61394;BME280;48555;50.952;-0.120;2023-03-18T06:31:05;99995.16;;;11.99;92.24
61394;BME280;48555;50.952;-0.120;2023-03-18T06:33:30;99997.06;;;11.97;92.65
61394;BME280;48555;50.952;-0.120;2023-03-18T06:35:57;99998.31;;;11.93;92.96
61394;BME280;48555;50.952;-0.120;2023-03-18T06:38:24;100000.81;;;11.94;92.90
61394;BME280;48555;50.952;-0.120;2023-03-18T06:40:50;99995.38;;;11.76;93.75
61394;BME280;48555;50.952;-0.120;2023-03-18T06:43:15;99999.50;;;11.79;94.03
61394;BME280;48555;50.952;-0.120;2023-03-18T06:45:41;99999.50;;;11.79;94.60
61394;BME280;48555;50.952;-0.120;2023-03-18T06:48:06;99999.94;;;11.84;94.05
61394;BME280;48555;50.952;-0.120;2023-03-18T06:50:34;100007.16;;;11.92;94.05
61394;BME280;48555;50.952;-0.120;2023-03-18T06:52:59;100012.78;;;11.97;93.63
61394;BME280;48555;50.952;-0.120;2023-03-18T06:55:25;100015.56;;;11.95;93.84
61394;BME280;48555;50.952;-0.120;2023-03-18T06:57:52;100017.09;;;11.98;93.69
61394;BME280;48555;50.952;-0.120;2023-03-18T07:00:18;100021.50;;;11.97;93.88
61394;BME280;48555;50.952;-0.120;2023-03-18T07:02:43;100010.31;;;11.95;93.86
61394;BME280;48555;50.952;-0.120;2023-03-18T07:05:10;100006.19;;;11.93;93.87
61394;BME280;48555;50.952;-0.120;2023-03-18T07:07:37;100009.06;;;11.90;93.93
61394;BME280;48555;50.952;-0.120;2023-03-18T07:10:07;100015.84;;;11.92;93.86
61394;BME280;48555;50.952;-0.120;2023-03-18T07:12:33;100007.16;;;11.92;93.91
61394;BME280;48555;50.952;-0.120;2023-03-18T07:14:58;100007.28;;;11.90;94.14
61394;BME280;48555;50.952;-0.120;2023-03-18T07:17:24;100003.53;;;11.83;94.42
61394;BME280;48555;50.952;-0.120;2023-03-18T07:19:49;100003.53;;;11.83;94.85
61394;BME280;48555;50.952;-0.120;2023-03-18T07:22:16;100016.06;;;11.79;94.93
61394;BME280;48555;50.952;-0.120;2023-03-18T07:24:42;100012.59;;;11.79;95.23
61394;BME280;48555;50.952;-0.120;2023-03-18T07:27:08;100014.94;;;11.82;95.29
61394;BME280;48555;50.952;-0.120;2023-03-18T07:29:34;100010.69;;;11.81;95.20
61394;BME280;48555;50.952;-0.120;2023-03-18T07:31:59;100009.88;;;11.80;95.40
61394;BME280;48555;50.952;-0.120;2023-03-18T07:34:26;100011.66;;;11.80;95.57
61394;BME280;48555;50.952;-0.120;2023-03-18T07:36:51;99994.41;;;11.77;95.81
61394;BME280;48555;50.952;-0.120;2023-03-18T07:39:17;99993.00;;;11.73;95.66
61394;BME280;48555;50.952;-0.120;2023-03-18T07:41:42;100009.47;;;11.85;95.83
61394;BME280;48555;50.952;-0.120;2023-03-18T07:44:08;99995.13;;;11.79;96.28
61394;BME280;48555;50.952;-0.120;2023-03-18T07:46:33;100010.31;;;11.86;96.21
61394;BME280;48555;50.952;-0.120;2023-03-18T07:48:59;100003.38;;;11.85;96.57
61394;BME280;48555;50.952;-0.120;2023-03-18T07:51:25;100015.84;;;11.92;96.40
61394;BME280;48555;50.952;-0.120;2023-03-18T07:53:50;100011.00;;;11.88;96.82
61394;BME280;48555;50.952;-0.120;2023-03-18T07:56:16;100003.00;;;11.89;96.51
61394;BME280;48555;50.952;-0.120;2023-03-18T07:58:41;99997.03;;;11.77;97.12
61394;BME280;48555;50.952;-0.120;2023-03-18T08:01:07;100005.28;;;11.73;97.53
61394;BME280;48555;50.952;-0.120;2023-03-18T08:03:33;100006.41;;;11.80;97.22
61394;BME280;48555;50.952;-0.120;2023-03-18T08:05:59;100006.16;;;11.83;97.18
61394;BME280;48555;50.952;-0.120;2023-03-18T08:08:25;100008.53;;;11.86;97.64
61394;BME280;48555;50.952;-0.120;2023-03-18T08:10:55;99992.50;;;11.79;97.80
61394;BME280;48555;50.952;-0.120;2023-03-18T08:13:20;100000.75;;;11.85;97.82
61394;BME280;48555;50.952;-0.120;2023-03-18T08:15:46;100000.66;;;11.86;97.69
61394;BME280;48555;50.952;-0.120;2023-03-18T08:18:12;99994.84;;;11.82;98.18
61394;BME280;48555;50.952;-0.120;2023-03-18T08:20:38;100001.19;;;11.80;98.25
61394;BME280;48555;50.952;-0.120;2023-03-18T08:23:03;99996.88;;;11.79;98.33
61394;BME280;48555;50.952;-0.120;2023-03-18T08:25:29;100003.66;;;11.81;97.99
61394;BME280;48555;50.952;-0.120;2023-03-18T08:27:54;100006.84;;;11.85;97.88
61394;BME280;48555;50.952;-0.120;2023-03-18T08:30:20;100008.19;;;11.70;98.29
61394;BME280;48555;50.952;-0.120;2023-03-18T08:32:49;100010.78;;;11.60;98.84
61394;BME280;48555;50.952;-0.120;2023-03-18T08:35:14;100008.72;;;11.64;98.56
61394;BME280;48555;50.952;-0.120;2023-03-18T08:37:40;100014.66;;;11.66;98.85
61394;BME280;48555;50.952;-0.120;2023-03-18T08:40:05;100022.09;;;11.70;98.78
61394;BME280;48555;50.952;-0.120;2023-03-18T08:42:34;100016.03;;;11.70;98.62
61394;BME280;48555;50.952;-0.120;2023-03-18T08:44:59;100020.88;;;11.74;98.57
61394;BME280;48555;50.952;-0.120;2023-03-18T08:47:25;100023.50;;;11.74;98.53
61394;BME280;48555;50.952;-0.120;2023-03-18T08:49:51;100019.34;;;11.72;98.92
61394;BME280;48555;50.952;-0.120;2023-03-18T08:52:17;100015.09;;;11.71;98.98
61394;BME280;48555;50.952;-0.120;2023-03-18T08:54:43;100017.84;;;11.69;99.09
61394;BME280;48555;50.952;-0.120;2023-03-18T08:57:08;100030.13;;;11.78;98.88
61394;BME280;48555;50.952;-0.120;2023-03-18T08:59:34;100029.56;;;11.85;99.10
61394;BME280;48555;50.952;-0.120;2023-03-18T09:02:01;100031.69;;;11.91;99.23
61394;BME280;48555;50.952;-0.120;2023-03-18T09:04:26;100025.19;;;11.85;99.37
61394;BME280;48555;50.952;-0.120;2023-03-18T09:06:52;100019.28;;;11.93;98.89
61394;BME280;48555;50.952;-0.120;2023-03-18T09:09:17;100011.41;;;11.93;98.66
61394;BME280;48555;50.952;-0.120;2023-03-18T09:11:43;100012.66;;;11.98;98.72
61394;BME280;48555;50.952;-0.120;2023-03-18T09:14:10;100013.50;;;11.99;99.00
61394;BME280;48555;50.952;-0.120;2023-03-18T09:16:35;100019.97;;;12.04;98.71
61394;BME280;48555;50.952;-0.120;2023-03-18T09:19:02;100015.16;;;12.10;98.94
61394;BME280;48555;50.952;-0.120;2023-03-18T09:21:27;100011.56;;;12.20;98.81
61394;BME280;48555;50.952;-0.120;2023-03-18T09:23:53;100011.97;;;12.25;98.75
61394;BME280;48555;50.952;-0.120;2023-03-18T09:26:18;100010.88;;;12.28;98.72
61394;BME280;48555;50.952;-0.120;2023-03-18T09:28:44;100015.56;;;12.34;98.80
61394;BME280;48555;50.952;-0.120;2023-03-18T09:31:09;100009.63;;;12.32;98.89
61394;BME280;48555;50.952;-0.120;2023-03-18T09:33:34;100011.28;;;12.43;98.53
61394;BME280;48555;50.952;-0.120;2023-03-18T09:36:01;100010.44;;;12.52;98.46
61394;BME280;48555;50.952;-0.120;2023-03-18T09:38:27;100009.88;;;12.58;98.52
61394;BME280;48555;50.952;-0.120;2023-03-18T09:43:46;100015.53;;;12.63;97.63
61394;BME280;48555;50.952;-0.120;2023-03-18T09:47:03;100010.44;;;12.62;96.96
61394;BME280;48555;50.952;-0.120;2023-03-18T09:55:38;100017.63;;;12.60;96.59
61394;BME280;48555;50.952;-0.120;2023-03-18T10:00:42;100025.59;;;12.58;96.43
61394;BME280;48555;50.952;-0.120;2023-03-18T10:05:51;100032.25;;;12.62;96.46
61394;BME280;48555;50.952;-0.120;2023-03-18T10:08:32;100035.94;;;12.69;96.52
61394;BME280;48555;50.952;-0.120;2023-03-18T10:11:06;100028.63;;;12.73;96.37
61394;BME280;48555;50.952;-0.120;2023-03-18T10:13:44;100031.94;;;12.75;96.34
61394;BME280;48555;50.952;-0.120;2023-03-18T10:16:20;100036.78;;;12.80;96.31
61394;BME280;48555;50.952;-0.120;2023-03-18T10:18:48;100037.16;;;12.85;96.29
61394;BME280;48555;50.952;-0.120;2023-03-18T10:24:36;100048.59;;;12.93;95.41
61394;BME280;48555;50.952;-0.120;2023-03-18T10:27:09;100052.91;;;12.94;95.21
61394;BME280;48555;50.952;-0.120;2023-03-18T10:29:51;100051.22;;;12.93;94.90
61394;BME280;48555;50.952;-0.120;2023-03-18T10:35:33;100054.28;;;12.89;94.31
61394;BME280;48555;50.952;-0.120;2023-03-18T10:38:04;100059.38;;;12.90;94.39
61394;BME280;48555;50.952;-0.120;2023-03-18T10:40:37;100055.66;;;12.93;94.62
61394;BME280;48555;50.952;-0.120;2023-03-18T10:43:13;100056.34;;;12.95;94.40
61394;BME280;48555;50.952;-0.120;2023-03-18T10:45:41;100065.56;;;12.99;94.45
61394;BME280;48555;50.952;-0.120;2023-03-18T10:48:27;100064.47;;;13.02;94.52
61394;BME280;48555;50.952;-0.120;2023-03-18T10:56:13;100077.38;;;13.23;94.93
61394;BME280;48555;50.952;-0.120;2023-03-18T10:58:40;100074.38;;;13.27;94.98
61394;BME280;48555;50.952;-0.120;2023-03-18T11:01:08;100083.19;;;13.36;94.99
61394;BME280;48555;50.952;-0.120;2023-03-18T11:03:48;100077.50;;;13.40;94.60
61394;BME280;48555;50.952;-0.120;2023-03-18T11:06:25;100081.75;;;13.51;95.01
61394;BME280;48555;50.952;-0.120;2023-03-18T11:09:12;100079.22;;;13.59;95.10
61394;BME280;48555;50.952;-0.120;2023-03-18T11:11:42;100076.66;;;13.68;95.21
61394;BME280;48555;50.952;-0.120;2023-03-18T11:14:17;100082.19;;;13.74;94.99
61394;BME280;48555;50.952;-0.120;2023-03-18T11:17:04;100088.38;;;13.83;95.19
61394;BME280;48555;50.952;-0.120;2023-03-18T11:19:39;100087.19;;;13.95;95.52
61394;BME280;48555;50.952;-0.120;2023-03-18T11:24:35;100086.47;;;14.21;95.17
61394;BME280;48555;50.952;-0.120;2023-03-18T11:27:21;100086.22;;;14.32;94.93
61394;BME280;48555;50.952;-0.120;2023-03-18T11:29:58;100089.94;;;14.39;94.29
61394;BME280;48555;50.952;-0.120;2023-03-18T11:32:30;100088.34;;;14.46;93.98
61394;BME280;48555;50.952;-0.120;2023-03-18T11:34:58;100092.56;;;14.57;93.72
61394;BME280;48555;50.952;-0.120;2023-03-18T11:37:37;100092.50;;;14.67;93.70
61394;BME280;48555;50.952;-0.120;2023-03-18T11:40:16;100100.59;;;14.73;92.78
61394;BME280;48555;50.952;-0.120;2023-03-18T11:42:45;100101.66;;;14.81;92.00
61394;BME280;48555;50.952;-0.120;2023-03-18T11:47:46;100093.56;;;15.00;91.62
61394;BME280;48555;50.952;-0.120;2023-03-18T11:50:19;100095.28;;;15.09;91.25
61394;BME280;48555;50.952;-0.120;2023-03-18T12:01:02;100093.66;;;15.77;90.45
61394;BME280;48555;50.952;-0.120;2023-03-18T12:06:20;100105.28;;;16.08;89.96
61394;BME280;48555;50.952;-0.120;2023-03-18T12:08:59;100101.03;;;16.16;88.98
61394;BME280;48555;50.952;-0.120;2023-03-18T12:11:43;100094.28;;;16.21;87.83
61394;BME280;48555;50.952;-0.120;2023-03-18T12:14:36;100110.28;;;16.36;87.37
61394;BME280;48555;50.952;-0.120;2023-03-18T12:17:20;100103.53;;;16.50;86.74
61394;BME280;48555;50.952;-0.120;2023-03-18T12:22:52;100104.03;;;16.62;83.33
61394;BME280;48555;50.952;-0.120;2023-03-18T12:28:46;100100.41;;;16.63;81.83
61394;BME280;48555;50.952;-0.120;2023-03-18T12:34:01;100101.56;;;16.68;80.55
61394;BME280;48555;50.952;-0.120;2023-03-18T12:36:50;100103.22;;;16.69;80.22
61394;BME280;48555;50.952;-0.120;2023-03-18T12:44:58;100109.19;;;16.79;79.07
61394;BME280;48555;50.952;-0.120;2023-03-18T12:47:33;100109.34;;;16.78;78.78
61394;BME280;48555;50.952;-0.120;2023-03-18T12:50:13;100103.69;;;16.73;77.69
61394;BME280;48555;50.952;-0.120;2023-03-18T12:52:49;100116.75;;;16.66;76.99
61394;BME280;48555;50.952;-0.120;2023-03-18T12:55:22;100115.56;;;16.52;76.87
61394;BME280;48555;50.952;-0.120;2023-03-18T12:57:53;100117.72;;;16.49;76.77
61394;BME280;48555;50.952;-0.120;2023-03-18T13:00:28;100119.38;;;16.42;76.54
61394;BME280;48555;50.952;-0.120;2023-03-18T13:03:02;100123.97;;;16.40;76.33
61394;BME280;48555;50.952;-0.120;2023-03-18T13:05:41;100120.03;;;16.35;76.55
61394;BME280;48555;50.952;-0.120;2023-03-18T13:10:41;100121.00;;;16.34;76.48
61394;BME280;48555;50.952;-0.120;2023-03-18T13:13:10;100133.38;;;16.34;76.39
61394;BME280;48555;50.952;-0.120;2023-03-18T13:15:49;100132.06;;;16.30;76.11
61394;BME280;48555;50.952;-0.120;2023-03-18T13:20:53;100132.03;;;16.22;75.99
61394;BME280;48555;50.952;-0.120;2023-03-18T13:23:39;100126.56;;;16.23;76.15
61394;BME280;48555;50.952;-0.120;2023-03-18T13:32:06;100131.66;;;16.08;74.46
61394;BME280;48555;50.952;-0.120;2023-03-18T13:43:17;100143.19;;;16.07;75.26
61394;BME280;48555;50.952;-0.120;2023-03-18T13:45:46;100145.50;;;16.10;74.96
61394;BME280;48555;50.952;-0.120;2023-03-18T13:48:16;100145.38;;;16.12;74.77
61394;BME280;48555;50.952;-0.120;2023-03-18T13:50:47;100129.34;;;15.97;75.05
61394;BME280;48555;50.952;-0.120;2023-03-18T13:53:32;100148.47;;;16.07;75.71
61394;BME280;48555;50.952;-0.120;2023-03-18T13:55:59;100149.78;;;16.11;74.86
61394;BME280;48555;50.952;-0.120;2023-03-18T13:58:45;100158.16;;;15.99;74.99
61394;BME280;48555;50.952;-0.120;2023-03-18T14:03:59;100150.94;;;16.01;75.38
61394;BME280;48555;50.952;-0.120;2023-03-18T14:09:29;100152.09;;;16.06;75.15
61394;BME280;48555;50.952;-0.120;2023-03-18T14:19:47;100145.06;;;15.81;73.55